ěÝzenÝ letovÚho provozu ╚eskÚ republiky
Letiste: LKNA Aktualizace: 21.09.2021 04:58:27  UTC
 METAR LKNA 21.09. 05:00 ...
METAR LKNA 210500Z VRB01KT CAVOK 09/06 Q1024 NOSIG RMK BLU BLU=
 TAF LKNA 20.09. 23:00 ...
TAF LKNA 202300Z 2100/2200 33008KT CAVOK      BECMG 2110/2112 BKN035      BECMG 2114/2116 CAVOK=